Shearwater — 3ESK5 — position and weather

sailwx.info

Track history (hours):
 
Tides and Currents Weather Stations Pressure Air Temp Water Temp Dewpoint Dewpoint Depression Visibility Wind Speed Wind Dir Waves Ship Positions

Shearwater

Last reported at 2018-Jan-19 22:01 UTC. Time now 2018-Feb-24 06:42 UTC.
Position S 31°55' E 032°36'.
Warning: this ship's position is 35 days out of date.

Length 210 m; draft 7.1 m.

Type: Cargo ship. MMSI: 370338000.

Date/timePositionNaut miles runAvg speedWind from/ knotsBaromVisibWave heightAir tempDewpointWater temp
2018-Jan-19 22:01S 31°55' E 032°36'012.8
2018-Jan-19 22:00S 31°54' E 032°36'1413.1
2018-Jan-19 20:55S 31°48' E 032°51'713.4
2018-Jan-19 20:25S 31°46' E 032°58'1913.6
2018-Jan-19 19:01S 31°37' E 033°18'013.5
2018-Jan-19 19:01S 31°37' E 033°18'2314.6
2018-Jan-19 17:25S 31°27' E 033°43'1214.5
2018-Jan-19 16:34S 31°22' E 033°56'114.2
2018-Jan-19 16:30S 31°21' E 033°57'714.4
2018-Jan-19 16:00S 31°18' E 034°04'714.4
2018-Jan-19 15:30S 31°15' E 034°12'814.2
2018-Jan-19 14:57S 31°12' E 034°20'613.8
2018-Jan-19 14:30S 31°09' E 034°27'713.4
2018-Jan-19 14:00S 31°06' E 034°34'713.6
2018-Jan-19 13:30S 31°03' E 034°41'713.6
2018-Jan-19 13:00S 31°01' E 034°48'713.9
2018-Jan-19 12:30S 30°58' E 034°56'814.4
2018-Jan-19 11:58S 30°54' E 035°04'813.7
2018-Jan-19 11:24S 30°51' E 035°12'513.1
2018-Jan-19 11:00S 30°49' E 035°17'2712.6
2018-Jan-19 08:50S 30°37' E 035°46'412.1
2018-Jan-19 08:30S 30°35' E 035°50'611.8
2018-Jan-19 08:01S 30°33' E 035°56'811.5
2018-Jan-19 07:20S 30°29' E 036°05'411.1
2018-Jan-19 06:58S 30°27' E 036°09'911.1
2018-Jan-19 06:12S 30°24' E 036°18'310.8
2018-Jan-19 05:54S 30°22' E 036°21'  
Track history (hours):
 
Tides and Currents Weather Stations Pressure Air Temp Water Temp Dewpoint Dewpoint Depression Visibility Wind Speed Wind Dir Waves Ship Positions

Shearwater

Last reported at 2018-Jan-19 22:01 UTC. Time now 2018-Feb-24 06:42 UTC.
Position S 31°55' E 032°36'.
Warning: this ship's position is 35 days out of date.

Length 210 m; draft 7.1 m.

Type: Cargo ship. MMSI: 370338000.

Date/timePositionNaut miles runAvg speedWind from/ knotsBaromVisibWave heightAir tempDewpointWater temp
2018-Jan-19 22:01S 31°55' E 032°36'012.8
2018-Jan-19 22:00S 31°54' E 032°36'1413.1
2018-Jan-19 20:55S 31°48' E 032°51'713.4
2018-Jan-19 20:25S 31°46' E 032°58'1913.6
2018-Jan-19 19:01S 31°37' E 033°18'013.5
2018-Jan-19 19:01S 31°37' E 033°18'2314.6
2018-Jan-19 17:25S 31°27' E 033°43'1214.5
2018-Jan-19 16:34S 31°22' E 033°56'114.2
2018-Jan-19 16:30S 31°21' E 033°57'714.4
2018-Jan-19 16:00S 31°18' E 034°04'714.4
2018-Jan-19 15:30S 31°15' E 034°12'814.2
2018-Jan-19 14:57S 31°12' E 034°20'613.8
2018-Jan-19 14:30S 31°09' E 034°27'713.4
2018-Jan-19 14:00S 31°06' E 034°34'713.6
2018-Jan-19 13:30S 31°03' E 034°41'713.6
2018-Jan-19 13:00S 31°01' E 034°48'713.9
2018-Jan-19 12:30S 30°58' E 034°56'814.4
2018-Jan-19 11:58S 30°54' E 035°04'813.7
2018-Jan-19 11:24S 30°51' E 035°12'513.1
2018-Jan-19 11:00S 30°49' E 035°17'2712.6
2018-Jan-19 08:50S 30°37' E 035°46'412.1
2018-Jan-19 08:30S 30°35' E 035°50'611.8
2018-Jan-19 08:01S 30°33' E 035°56'811.5
2018-Jan-19 07:20S 30°29' E 036°05'411.1
2018-Jan-19 06:58S 30°27' E 036°09'911.1
2018-Jan-19 06:12S 30°24' E 036°18'310.8
2018-Jan-19 05:54S 30°22' E 036°21'  

Dump ship's entire track history